createdAt,value
2022-10-19T00:08:25.026Z,6.20
2022-10-19T00:18:52.375Z,5.10
2022-10-19T00:29:20.058Z,5.70
2022-10-19T00:50:15.741Z,4.30
2022-10-19T01:00:43.268Z,5.50
2022-10-19T01:11:24.215Z,5.20
2022-10-19T01:22:01.403Z,13.00
2022-10-19T01:32:37.754Z,8.30
2022-10-19T01:43:11.277Z,7.70
2022-10-19T01:53:45.739Z,8.00
2022-10-19T02:04:15.553Z,9.30
2022-10-19T02:14:47.166Z,9.30
2022-10-19T02:25:15.350Z,9.70
2022-10-19T02:35:43.154Z,8.60
2022-10-19T02:46:17.125Z,9.70
2022-10-19T02:56:44.417Z,10.30
2022-10-19T03:07:12.905Z,9.20
2022-10-19T03:17:40.211Z,8.90
2022-10-19T03:28:07.472Z,8.50
2022-10-19T03:38:34.751Z,9.60
2022-10-19T03:49:02.296Z,10.60
2022-10-19T03:59:29.697Z,9.60
2022-10-19T04:09:57.054Z,10.40
2022-10-19T04:20:24.329Z,10.50
2022-10-19T04:30:51.679Z,9.60
2022-10-19T04:41:21.248Z,11.10
2022-10-19T04:51:48.516Z,9.60
2022-10-19T05:02:15.826Z,11.20
2022-10-19T05:12:43.097Z,11.20
2022-10-19T05:23:10.428Z,11.40
2022-10-19T05:33:38.406Z,10.80
2022-10-19T05:54:32.394Z,11.00
2022-10-19T06:04:59.666Z,11.60
2022-10-19T06:15:26.990Z,11.20
2022-10-19T06:25:54.761Z,11.50
2022-10-19T06:36:24.728Z,10.40
2022-10-19T06:46:52.052Z,11.00
2022-10-19T06:57:19.422Z,12.00
2022-10-19T07:07:46.857Z,10.20
2022-10-19T07:18:14.262Z,10.10
2022-10-19T07:28:43.437Z,11.10
2022-10-19T07:39:10.972Z,11.40
2022-10-19T07:49:38.473Z,11.00
2022-10-19T08:00:07.378Z,11.30
2022-10-19T08:10:34.898Z,10.10
2022-10-19T08:21:04.786Z,7.50
2022-10-19T08:31:32.324Z,7.00
2022-10-19T08:42:06.924Z,4.00
2022-10-19T08:52:37.312Z,4.50
2022-10-19T09:03:17.626Z,3.60
2022-10-19T09:14:04.854Z,3.30
2022-10-19T09:24:43.960Z,2.50
2022-10-19T09:35:27.467Z,2.40
2022-10-19T09:45:58.505Z,1.70
2022-10-19T09:56:27.852Z,1.60
2022-10-19T10:06:57.712Z,1.80
2022-10-19T10:17:31.612Z,2.20
2022-10-19T10:28:02.091Z,1.20
2022-10-19T10:38:33.756Z,2.10
2022-10-19T10:49:03.629Z,1.50
2022-10-19T10:59:36.225Z,2.00
2022-10-19T11:10:13.822Z,1.80
2022-10-19T11:20:50.198Z,1.80
2022-10-19T11:31:23.516Z,2.20
2022-10-19T11:42:02.423Z,2.30
2022-10-19T11:52:40.478Z,1.80
2022-10-19T12:03:26.905Z,2.20
2022-10-19T12:13:58.467Z,2.10
2022-10-19T12:24:28.723Z,1.60
2022-10-19T12:35:05.014Z,2.00
2022-10-19T12:45:35.501Z,1.60
2022-10-19T12:56:06.456Z,1.40
2022-10-19T13:06:37.674Z,1.60
2022-10-19T13:17:05.778Z,1.10
2022-10-19T13:38:29.964Z,2.40
2022-10-19T13:49:20.607Z,1.90
2022-10-19T14:00:07.162Z,2.20
2022-10-19T14:10:56.227Z,2.40
2022-10-19T14:21:32.394Z,2.60
2022-10-19T14:32:01.448Z,2.80
2022-10-19T14:42:38.834Z,1.50
2022-10-19T14:53:20.595Z,1.40
2022-10-19T15:03:51.128Z,2.70
2022-10-19T15:14:22.066Z,3.10
2022-10-19T15:25:25.170Z,1.70
2022-10-19T15:35:52.733Z,3.00
2022-10-19T15:46:31.188Z,2.70
2022-10-19T15:56:59.743Z,3.60
2022-10-19T16:07:32.082Z,3.30
2022-10-19T16:18:01.456Z,6.30
2022-10-19T16:28:29.571Z,4.20
2022-10-19T16:38:56.990Z,4.70
2022-10-19T16:49:24.321Z,4.80
2022-10-19T17:10:27.204Z,5.80
2022-10-19T17:20:55.602Z,6.10
2022-10-19T17:31:23.175Z,5.90
2022-10-19T17:41:52.614Z,4.60
2022-10-19T17:52:19.904Z,6.10
2022-10-19T18:02:48.896Z,5.60
2022-10-19T18:13:16.410Z,5.20
2022-10-19T18:23:43.901Z,6.90
2022-10-19T18:34:16.020Z,6.30
2022-10-19T18:44:43.335Z,6.20
2022-10-19T18:55:11.713Z,6.60
2022-10-19T19:05:38.968Z,6.80
2022-10-19T19:16:07.978Z,5.70
2022-10-19T19:26:39.974Z,9.90
2022-10-19T19:37:10.345Z,6.10
2022-10-19T19:47:38.633Z,10.40
2022-10-19T19:58:05.979Z,7.10
2022-10-19T20:08:33.983Z,6.10
2022-10-19T20:39:55.815Z,6.10
2022-10-19T20:50:23.517Z,9.00
2022-10-19T21:00:50.719Z,8.20
2022-10-19T21:11:20.630Z,7.10
2022-10-19T21:21:49.932Z,6.80
2022-10-19T21:32:18.425Z,4.50
2022-10-19T21:42:46.229Z,6.70
2022-10-19T21:53:13.568Z,8.90
2022-10-19T22:03:41.004Z,13.70
2022-10-19T22:14:08.361Z,10.00
2022-10-19T22:24:35.842Z,10.00
2022-10-19T22:35:03.256Z,9.50
2022-10-19T22:45:30.773Z,9.50
2022-10-19T22:55:58.253Z,9.60
2022-10-19T23:06:25.701Z,8.80
2022-10-19T23:16:53.073Z,7.20
2022-10-19T23:27:21.246Z,8.00
2022-10-19T23:37:48.761Z,6.80
2022-10-19T23:48:16.059Z,7.30
2022-10-19T23:58:43.556Z,5.70
